Time;durP1;ratioP1;P1;durP2;ratioP2;P2;SDS_P1;SDS_P2;PMS_P1;PMS_P2;Temp;Humidity;BMP_temperature;BMP_pressure;BME280_temperature;BME280_humidity;BME280_pressure;Samples;Min_cycle;Max_cycle;Signal;HPM_P1;HPM_P2
2022/11/23 09:47:06;;;;;;;2.00;1.80;;;;;;;4.61;100.00;98172.41;6176649;23;20277;-84
2022/11/23 09:49:55;;;;;;;3.17;2.30;;;;;;;4.52;100.00;98165.75;6184209;23;20226;-84
2022/11/23 09:52:25;;;;;;;2.50;2.30;;;;;;;4.37;100.00;98155.44;6179181;23;20190;-84
2022/11/23 09:54:56;;;;;;;2.97;2.10;;;;;;;4.42;100.00;98148.47;6181905;23;20228;-83
2022/11/23 09:57:32;;;;;;;2.07;1.90;;;;;;;4.38;100.00;98151.78;6175303;23;20201;-83
2022/11/23 10:00:24;;;;;;;2.10;1.90;;;;;;;4.31;100.00;98143.03;6181424;23;20225;-83
2022/11/23 10:02:54;;;;;;;2.07;1.87;;;;;;;4.29;100.00;98140.59;6161128;23;20209;-83
2022/11/23 10:05:24;;;;;;;2.00;1.80;;;;;;;4.32;100.00;98134.06;6157358;23;20284;-83
2022/11/23 10:08:15;;;;;;;2.27;1.73;;;;;;;4.51;100.00;98140.25;6184777;23;20233;-83
2022/11/23 10:11:02;;;;;;;3.03;1.90;;;;;;;4.52;100.00;98133.91;6206988;23;20202;-84
2022/11/23 10:13:50;;;;;;;2.13;1.93;;;;;;;4.52;100.00;98141.88;6158740;23;20186;-82
2022/11/23 10:16:26;;;;;;;2.00;1.80;;;;;;;4.52;100.00;98140.03;6204971;23;20213;-84
2022/11/23 10:19:30;;;;;;;3.00;2.23;;;;;;;4.52;100.00;98141.88;6158186;23;20186;-84
2022/11/23 12:53:48;;;;;;;1.30;1.20;;;;;;;6.73;100.00;98095.06;6147280;23;20223;-80
2022/11/23 12:57:14;;;;;;;1.30;1.20;;;;;;;6.70;100.00;98100.84;6145048;23;20226;-83
2022/11/23 13:26:24;;;;;;;1.57;1.17;;;;;;;6.17;100.00;98089.22;6149034;23;20265;-80
2022/11/23 13:28:52;;;;;;;1.30;1.20;;;;;;;6.13;100.00;98088.06;6141198;23;20203;-82
2022/11/23 13:31:30;;;;;;;1.37;1.27;;;;;;;6.10;100.00;98083.22;6140647;23;20270;-80
2022/11/23 13:34:02;;;;;;;1.30;1.20;;;;;;;6.12;100.00;98085.63;6139165;23;20215;-80
2022/11/23 13:36:29;;;;;;;1.60;1.13;;;;;;;6.13;100.00;98087.25;6143918;23;20208;-81
2022/11/23 14:02:43;;;;;;;1.33;1.10;;;;;;;6.03;100.00;98082.50;6147299;23;20229;-80
2022/11/23 14:05:51;;;;;;;1.43;1.17;;;;;;;5.96;100.00;98081.00;6164014;23;20269;-84
2022/11/23 14:08:19;;;;;;;1.13;1.03;;;;;;;5.92;100.00;98080.63;6138031;23;20210;-82
2022/11/23 14:10:46;;;;;;;1.23;1.13;;;;;;;6.01;100.00;98083.78;6161367;23;20690;-82
2022/11/23 14:13:26;;;;;;;1.20;1.10;;;;;;;5.89;100.00;98081.06;6157345;23;20206;-82
2022/11/23 14:15:59;;;;;;;1.30;1.00;;;;;;;5.84;100.00;98085.41;6157800;23;20233;-82
2022/11/23 14:19:10;;;;;;;1.40;1.30;;;;;;;5.96;100.00;98076.50;6141330;23;20203;-81
2022/11/23 14:21:43;;;;;;;1.50;1.27;;;;;;;5.89;100.00;98086.38;6162461;23;20214;-83
2022/11/23 14:24:50;;;;;;;2.13;1.20;;;;;;;5.85;100.00;98093.16;6119985;23;20265;-81
2022/11/23 14:27:29;;;;;;;1.40;1.30;;;;;;;5.74;100.00;98083.28;6163085;23;20663;-80
2022/11/23 14:30:38;;;;;;;1.27;1.17;;;;;;;5.78;100.00;98095.91;6168107;23;20183;-80
2022/11/23 14:33:17;;;;;;;1.20;1.10;;;;;;;6.06;100.00;98098.00;6144238;23;20210;-81
2022/11/23 14:40:06;;;;;;;1.20;1.10;;;;;;;5.82;100.00;98100.78;6097967;23;20284;-80
2022/11/23 14:42:38;;;;;;;1.10;1.00;;;;;;;5.81;100.00;98112.44;6177955;23;20199;-81
2022/11/23 14:45:12;;;;;;;0.90;0.90;;;;;;;5.78;100.00;98115.56;6156761;23;20167;-82
2022/11/23 14:47:49;;;;;;;1.20;0.93;;;;;;;5.75;100.00;98114.16;6182377;23;20150;-81
2022/11/23 14:50:26;;;;;;;0.80;0.80;;;;;;;5.75;100.00;98116.81;6182527;23;20179;-81
2022/11/23 14:56:28;;;;;;;1.37;1.07;;;;;;;5.66;100.00;98118.16;6100780;23;21386;-79
2022/11/23 14:59:06;;;;;;;1.70;1.20;;;;;;;5.51;100.00;98112.44;6137229;23;20215;-82
2022/11/23 15:04:39;;;;;;;1.33;1.23;;;;;;;5.52;100.00;98119.38;6166991;23;20209;-82
2022/11/23 15:07:20;;;;;;;1.37;0.90;;;;;;;5.48;100.00;98115.53;6154244;23;20203;-82
2022/11/23 15:52:13;;;;;;;1.17;1.07;;;;;;;5.02;100.00;98139.97;6151175;23;20211;-81
2022/11/23 15:58:00;;;;;;;1.20;1.10;;;;;;;4.83;100.00;98144.44;6119926;23;20227;-81
